Blanes, Spain
Current Conditions -  °F | °C
As of 10:00 AM on Monday 24 Nov 2014 (Local Time) from LEGE Reporting Station
Broken Clouds Broken Clouds  
Wind Chill: 59°   Ceiling: 8000
Heat Index: 59°   Visibility: 6mi
Dew Point: 57°   Wind: 5mph
Humidity: 94%   Direction: 10°N
Pressure: 30.09"   Gusts: NA
Location:  41.67°N, 2.79°E
Report Text: LEGE 240900Z 01004KT 9999 SCT025 BKN080 15/14 Q1019
Loading
Personal Weather Stations






























Interactive Weather Map New forecast layout! Learn more

10-Day Weather Forecast

Advertisements
Track Severe Weather on mobile